sensor_id;sensor_type;location;lat;lon;timestamp;P1;durP1;ratioP1;P2;durP2;ratioP2
63784;SDS011;49927;48.146;11.420;2022-12-31T00:00:53;0.32;;;0.20;;
63784;SDS011;49927;48.146;11.420;2022-12-31T00:03:18;0.35;;;0.20;;
63784;SDS011;49927;48.146;11.420;2022-12-31T00:05:44;0.30;;;0.13;;
63784;SDS011;49927;48.146;11.420;2022-12-31T00:08:09;0.22;;;0.20;;
63784;SDS011;49927;48.146;11.420;2022-12-31T00:10:35;0.25;;;0.20;;
63784;SDS011;49927;48.146;11.420;2022-12-31T00:13:01;1.20;;;0.20;;
63784;SDS011;49927;48.146;11.420;2022-12-31T00:15:27;0.52;;;0.20;;
63784;SDS011;49927;48.146;11.420;2022-12-31T00:17:53;0.30;;;0.10;;
63784;SDS011;49927;48.146;11.420;2022-12-31T00:20:18;0.25;;;0.20;;
63784;SDS011;49927;48.146;11.420;2022-12-31T00:22:44;0.10;;;0.10;;
63784;SDS011;49927;48.146;11.420;2022-12-31T00:25:09;0.88;;;0.20;;
63784;SDS011;49927;48.146;11.420;2022-12-31T00:27:35;0.35;;;0.20;;
63784;SDS011;49927;48.146;11.420;2022-12-31T00:30:01;0.10;;;0.10;;
63784;SDS011;49927;48.146;11.420;2022-12-31T00:32:27;0.40;;;0.30;;
63784;SDS011;49927;48.146;11.420;2022-12-31T00:34:52;0.55;;;0.20;;
63784;SDS011;49927;48.146;11.420;2022-12-31T00:37:18;1.48;;;0.20;;
63784;SDS011;49927;48.146;11.420;2022-12-31T00:39:43;1.55;;;0.17;;
63784;SDS011;49927;48.146;11.420;2022-12-31T00:42:09;0.22;;;0.10;;
63784;SDS011;49927;48.146;11.420;2022-12-31T00:44:34;0.32;;;0.22;;
63784;SDS011;49927;48.146;11.420;2022-12-31T00:47:01;1.08;;;0.17;;
63784;SDS011;49927;48.146;11.420;2022-12-31T00:49:27;0.30;;;0.20;;
63784;SDS011;49927;48.146;11.420;2022-12-31T00:51:52;0.50;;;0.30;;
63784;SDS011;49927;48.146;11.420;2022-12-31T00:54:18;0.40;;;0.20;;
63784;SDS011;49927;48.146;11.420;2022-12-31T00:56:43;0.30;;;0.20;;
63784;SDS011;49927;48.146;11.420;2022-12-31T00:59:09;0.20;;;0.17;;
63784;SDS011;49927;48.146;11.420;2022-12-31T01:01:35;0.17;;;0.10;;
63784;SDS011;49927;48.146;11.420;2022-12-31T01:04:04;0.03;;;0.03;;
63784;SDS011;49927;48.146;11.420;2022-12-31T01:06:31;0.20;;;0.10;;
63784;SDS011;49927;48.146;11.420;2022-12-31T01:08:56;0.10;;;0.10;;
63784;SDS011;49927;48.146;11.420;2022-12-31T01:11:22;0.70;;;0.28;;
63784;SDS011;49927;48.146;11.420;2022-12-31T01:13:50;0.10;;;0.10;;
63784;SDS011;49927;48.146;11.420;2022-12-31T01:16:17;0.75;;;0.20;;
63784;SDS011;49927;48.146;11.420;2022-12-31T01:18:43;0.05;;;0.05;;
63784;SDS011;49927;48.146;11.420;2022-12-31T01:21:10;0.20;;;0.20;;
63784;SDS011;49927;48.146;11.420;2022-12-31T01:23:36;0.30;;;0.20;;
63784;SDS011;49927;48.146;11.420;2022-12-31T01:26:03;0.60;;;0.10;;
63784;SDS011;49927;48.146;11.420;2022-12-31T01:28:30;0.15;;;0.15;;
63784;SDS011;49927;48.146;11.420;2022-12-31T01:30:56;0.22;;;0.20;;
63784;SDS011;49927;48.146;11.420;2022-12-31T01:33:22;0.22;;;0.17;;
63784;SDS011;49927;48.146;11.420;2022-12-31T01:35:47;0.57;;;0.20;;
63784;SDS011;49927;48.146;11.420;2022-12-31T01:38:14;0.30;;;0.17;;
63784;SDS011;49927;48.146;11.420;2022-12-31T01:40:40;0.10;;;0.10;;
63784;SDS011;49927;48.146;11.420;2022-12-31T01:43:08;0.10;;;0.10;;
63784;SDS011;49927;48.146;11.420;2022-12-31T01:45:37;1.20;;;0.20;;
63784;SDS011;49927;48.146;11.420;2022-12-31T01:48:06;0.10;;;0.10;;
63784;SDS011;49927;48.146;11.420;2022-12-31T01:50:34;0.28;;;0.28;;
63784;SDS011;49927;48.146;11.420;2022-12-31T01:53:01;0.20;;;0.17;;
63784;SDS011;49927;48.146;11.420;2022-12-31T01:55:29;0.32;;;0.15;;
63784;SDS011;49927;48.146;11.420;2022-12-31T01:57:58;0.10;;;0.08;;
63784;SDS011;49927;48.146;11.420;2022-12-31T02:00:25;0.20;;;0.20;;
63784;SDS011;49927;48.146;11.420;2022-12-31T02:02:51;0.30;;;0.22;;
63784;SDS011;49927;48.146;11.420;2022-12-31T02:05:18;0.22;;;0.20;;
63784;SDS011;49927;48.146;11.420;2022-12-31T02:07:47;0.20;;;0.20;;
63784;SDS011;49927;48.146;11.420;2022-12-31T02:10:12;0.63;;;0.10;;
63784;SDS011;49927;48.146;11.420;2022-12-31T02:12:39;0.20;;;0.20;;
63784;SDS011;49927;48.146;11.420;2022-12-31T02:15:05;0.30;;;0.20;;
63784;SDS011;49927;48.146;11.420;2022-12-31T02:17:33;0.50;;;0.40;;
63784;SDS011;49927;48.146;11.420;2022-12-31T02:20:09;0.50;;;0.22;;
63784;SDS011;49927;48.146;11.420;2022-12-31T02:23:03;0.10;;;0.10;;
63784;SDS011;49927;48.146;11.420;2022-12-31T02:25:48;0.10;;;0.10;;
63784;SDS011;49927;48.146;11.420;2022-12-31T02:28:28;0.30;;;0.10;;
63784;SDS011;49927;48.146;11.420;2022-12-31T02:31:05;0.00;;;0.00;;
63784;SDS011;49927;48.146;11.420;2022-12-31T02:33:34;0.10;;;0.10;;
63784;SDS011;49927;48.146;11.420;2022-12-31T02:36:01;0.13;;;0.13;;
63784;SDS011;49927;48.146;11.420;2022-12-31T02:38:28;0.17;;;0.17;;
63784;SDS011;49927;48.146;11.420;2022-12-31T02:41:00;2.65;;;0.20;;
63784;SDS011;49927;48.146;11.420;2022-12-31T02:43:25;0.00;;;0.00;;
63784;SDS011;49927;48.146;11.420;2022-12-31T02:45:54;0.28;;;0.10;;
63784;SDS011;49927;48.146;11.420;2022-12-31T02:48:30;0.10;;;0.10;;
63784;SDS011;49927;48.146;11.420;2022-12-31T02:51:07;0.20;;;0.20;;
63784;SDS011;49927;48.146;11.420;2022-12-31T02:56:41;0.75;;;0.30;;
63784;SDS011;49927;48.146;11.420;2022-12-31T02:59:12;0.13;;;0.10;;
63784;SDS011;49927;48.146;11.420;2022-12-31T03:01:42;0.30;;;0.17;;
63784;SDS011;49927;48.146;11.420;2022-12-31T03:04:12;0.40;;;0.20;;
63784;SDS011;49927;48.146;11.420;2022-12-31T03:06:38;0.32;;;0.20;;
63784;SDS011;49927;48.146;11.420;2022-12-31T03:09:04;0.60;;;0.60;;
63784;SDS011;49927;48.146;11.420;2022-12-31T03:11:30;0.20;;;0.10;;
63784;SDS011;49927;48.146;11.420;2022-12-31T03:13:55;0.25;;;0.13;;
63784;SDS011;49927;48.146;11.420;2022-12-31T03:16:21;0.10;;;0.10;;
63784;SDS011;49927;48.146;11.420;2022-12-31T03:18:46;0.28;;;0.20;;
63784;SDS011;49927;48.146;11.420;2022-12-31T03:21:13;0.10;;;0.10;;
63784;SDS011;49927;48.146;11.420;2022-12-31T03:23:40;1.33;;;0.30;;
63784;SDS011;49927;48.146;11.420;2022-12-31T03:26:07;0.73;;;0.20;;
63784;SDS011;49927;48.146;11.420;2022-12-31T03:28:34;0.13;;;0.10;;
63784;SDS011;49927;48.146;11.420;2022-12-31T03:31:00;0.30;;;0.20;;
63784;SDS011;49927;48.146;11.420;2022-12-31T03:33:28;0.43;;;0.43;;
63784;SDS011;49927;48.146;11.420;2022-12-31T03:35:54;0.20;;;0.10;;
63784;SDS011;49927;48.146;11.420;2022-12-31T03:38:21;0.75;;;0.10;;
63784;SDS011;49927;48.146;11.420;2022-12-31T03:40:48;0.63;;;0.10;;
63784;SDS011;49927;48.146;11.420;2022-12-31T03:43:14;1.25;;;0.20;;
63784;SDS011;49927;48.146;11.420;2022-12-31T03:45:40;0.25;;;0.20;;
63784;SDS011;49927;48.146;11.420;2022-12-31T03:48:06;0.10;;;0.10;;
63784;SDS011;49927;48.146;11.420;2022-12-31T03:50:33;0.10;;;0.00;;
63784;SDS011;49927;48.146;11.420;2022-12-31T03:52:59;0.03;;;0.03;;
63784;SDS011;49927;48.146;11.420;2022-12-31T03:55:26;0.17;;;0.10;;
63784;SDS011;49927;48.146;11.420;2022-12-31T03:57:51;0.43;;;0.15;;
63784;SDS011;49927;48.146;11.420;2022-12-31T04:00:18;0.30;;;0.10;;
63784;SDS011;49927;48.146;11.420;2022-12-31T04:02:45;0.93;;;0.28;;
63784;SDS011;49927;48.146;11.420;2022-12-31T04:05:11;0.80;;;0.20;;
63784;SDS011;49927;48.146;11.420;2022-12-31T04:07:37;0.17;;;0.17;;
63784;SDS011;49927;48.146;11.420;2022-12-31T04:10:03;0.10;;;0.10;;
63784;SDS011;49927;48.146;11.420;2022-12-31T04:12:31;1.65;;;0.10;;
63784;SDS011;49927;48.146;11.420;2022-12-31T04:14:56;1.05;;;0.45;;
63784;SDS011;49927;48.146;11.420;2022-12-31T04:17:22;0.10;;;0.10;;
63784;SDS011;49927;48.146;11.420;2022-12-31T04:19:47;0.20;;;0.20;;
63784;SDS011;49927;48.146;11.420;2022-12-31T04:22:13;2.28;;;0.20;;
63784;SDS011;49927;48.146;11.420;2022-12-31T04:24:38;0.10;;;0.10;;
63784;SDS011;49927;48.146;11.420;2022-12-31T04:27:04;0.20;;;0.20;;
63784;SDS011;49927;48.146;11.420;2022-12-31T04:29:31;0.10;;;0.10;;
63784;SDS011;49927;48.146;11.420;2022-12-31T04:31:56;0.35;;;0.10;;
63784;SDS011;49927;48.146;11.420;2022-12-31T04:34:22;0.20;;;0.13;;
63784;SDS011;49927;48.146;11.420;2022-12-31T04:36:47;0.10;;;0.10;;
63784;SDS011;49927;48.146;11.420;2022-12-31T04:39:13;0.80;;;0.10;;
63784;SDS011;49927;48.146;11.420;2022-12-31T04:41:38;0.68;;;0.20;;
63784;SDS011;49927;48.146;11.420;2022-12-31T04:44:04;0.30;;;0.10;;
63784;SDS011;49927;48.146;11.420;2022-12-31T04:46:31;0.20;;;0.10;;
63784;SDS011;49927;48.146;11.420;2022-12-31T04:48:58;0.20;;;0.20;;
63784;SDS011;49927;48.146;11.420;2022-12-31T04:51:24;0.22;;;0.20;;
63784;SDS011;49927;48.146;11.420;2022-12-31T04:53:51;0.15;;;0.13;;
63784;SDS011;49927;48.146;11.420;2022-12-31T04:56:16;1.55;;;0.35;;
63784;SDS011;49927;48.146;11.420;2022-12-31T04:58:42;0.20;;;0.20;;
63784;SDS011;49927;48.146;11.420;2022-12-31T05:01:07;0.28;;;0.28;;
63784;SDS011;49927;48.146;11.420;2022-12-31T05:03:34;0.28;;;0.17;;
63784;SDS011;49927;48.146;11.420;2022-12-31T05:06:00;0.47;;;0.20;;
63784;SDS011;49927;48.146;11.420;2022-12-31T05:08:27;0.15;;;0.05;;
63784;SDS011;49927;48.146;11.420;2022-12-31T05:10:53;1.80;;;0.22;;
63784;SDS011;49927;48.146;11.420;2022-12-31T05:13:18;0.22;;;0.20;;
63784;SDS011;49927;48.146;11.420;2022-12-31T05:15:44;1.48;;;0.20;;
63784;SDS011;49927;48.146;11.420;2022-12-31T05:18:10;1.90;;;0.20;;
63784;SDS011;49927;48.146;11.420;2022-12-31T05:20:37;0.85;;;0.30;;
63784;SDS011;49927;48.146;11.420;2022-12-31T05:23:02;0.20;;;0.20;;
63784;SDS011;49927;48.146;11.420;2022-12-31T05:25:28;0.63;;;0.20;;
63784;SDS011;49927;48.146;11.420;2022-12-31T05:27:53;0.20;;;0.20;;
63784;SDS011;49927;48.146;11.420;2022-12-31T05:30:22;0.20;;;0.20;;
63784;SDS011;49927;48.146;11.420;2022-12-31T05:32:47;0.15;;;0.13;;
63784;SDS011;49927;48.146;11.420;2022-12-31T05:35:13;0.40;;;0.20;;
63784;SDS011;49927;48.146;11.420;2022-12-31T05:37:40;0.35;;;0.20;;
63784;SDS011;49927;48.146;11.420;2022-12-31T05:40:06;0.40;;;0.30;;
63784;SDS011;49927;48.146;11.420;2022-12-31T05:42:32;0.10;;;0.10;;
63784;SDS011;49927;48.146;11.420;2022-12-31T05:44:57;0.75;;;0.28;;
63784;SDS011;49927;48.146;11.420;2022-12-31T05:47:23;0.08;;;0.08;;
63784;SDS011;49927;48.146;11.420;2022-12-31T05:49:48;1.02;;;0.30;;
63784;SDS011;49927;48.146;11.420;2022-12-31T05:52:14;0.22;;;0.20;;
63784;SDS011;49927;48.146;11.420;2022-12-31T05:54:41;0.10;;;0.10;;
63784;SDS011;49927;48.146;11.420;2022-12-31T05:57:07;0.85;;;0.13;;
63784;SDS011;49927;48.146;11.420;2022-12-31T05:59:32;1.38;;;0.30;;
63784;SDS011;49927;48.146;11.420;2022-12-31T06:01:58;0.77;;;0.30;;
63784;SDS011;49927;48.146;11.420;2022-12-31T06:04:23;0.20;;;0.20;;
63784;SDS011;49927;48.146;11.420;2022-12-31T06:06:49;2.00;;;1.10;;
63784;SDS011;49927;48.146;11.420;2022-12-31T06:09:15;1.27;;;0.80;;
63784;SDS011;49927;48.146;11.420;2022-12-31T06:11:42;1.02;;;0.73;;
63784;SDS011;49927;48.146;11.420;2022-12-31T06:14:08;0.45;;;0.40;;
63784;SDS011;49927;48.146;11.420;2022-12-31T06:16:33;0.22;;;0.20;;
63784;SDS011;49927;48.146;11.420;2022-12-31T06:18:59;1.00;;;0.30;;
63784;SDS011;49927;48.146;11.420;2022-12-31T06:21:24;0.20;;;0.20;;
63784;SDS011;49927;48.146;11.420;2022-12-31T06:23:50;1.75;;;0.40;;
63784;SDS011;49927;48.146;11.420;2022-12-31T06:26:15;0.63;;;0.35;;
63784;SDS011;49927;48.146;11.420;2022-12-31T06:28:42;0.15;;;0.15;;
63784;SDS011;49927;48.146;11.420;2022-12-31T06:31:10;0.70;;;0.47;;
63784;SDS011;49927;48.146;11.420;2022-12-31T06:33:36;0.43;;;0.20;;
63784;SDS011;49927;48.146;11.420;2022-12-31T06:36:02;1.13;;;0.40;;
63784;SDS011;49927;48.146;11.420;2022-12-31T06:38:30;0.43;;;0.20;;
63784;SDS011;49927;48.146;11.420;2022-12-31T06:40:56;0.43;;;0.20;;
63784;SDS011;49927;48.146;11.420;2022-12-31T06:43:26;2.75;;;0.30;;
63784;SDS011;49927;48.146;11.420;2022-12-31T06:45:53;0.10;;;0.10;;
63784;SDS011;49927;48.146;11.420;2022-12-31T06:48:19;0.10;;;0.10;;
63784;SDS011;49927;48.146;11.420;2022-12-31T06:50:44;0.30;;;0.25;;
63784;SDS011;49927;48.146;11.420;2022-12-31T06:53:09;0.10;;;0.10;;
63784;SDS011;49927;48.146;11.420;2022-12-31T06:55:35;0.30;;;0.28;;
63784;SDS011;49927;48.146;11.420;2022-12-31T06:58:01;0.20;;;0.20;;
63784;SDS011;49927;48.146;11.420;2022-12-31T07:00:27;0.70;;;0.28;;
63784;SDS011;49927;48.146;11.420;2022-12-31T07:03:00;0.30;;;0.13;;
63784;SDS011;49927;48.146;11.420;2022-12-31T07:05:38;0.45;;;0.10;;
63784;SDS011;49927;48.146;11.420;2022-12-31T07:08:09;0.30;;;0.10;;
63784;SDS011;49927;48.146;11.420;2022-12-31T07:10:43;0.20;;;0.20;;
63784;SDS011;49927;48.146;11.420;2022-12-31T07:16:08;0.63;;;0.30;;
63784;SDS011;49927;48.146;11.420;2022-12-31T07:18:43;0.20;;;0.20;;
63784;SDS011;49927;48.146;11.420;2022-12-31T07:21:11;0.17;;;0.17;;
63784;SDS011;49927;48.146;11.420;2022-12-31T07:23:38;1.65;;;0.40;;
63784;SDS011;49927;48.146;11.420;2022-12-31T07:26:05;1.27;;;0.35;;
63784;SDS011;49927;48.146;11.420;2022-12-31T07:28:39;0.40;;;0.40;;
63784;SDS011;49927;48.146;11.420;2022-12-31T07:31:12;3.05;;;0.30;;
63784;SDS011;49927;48.146;11.420;2022-12-31T07:33:46;0.32;;;0.28;;
63784;SDS011;49927;48.146;11.420;2022-12-31T07:36:18;0.75;;;0.50;;
63784;SDS011;49927;48.146;11.420;2022-12-31T07:38:52;0.25;;;0.25;;
63784;SDS011;49927;48.146;11.420;2022-12-31T07:41:22;2.63;;;0.90;;
63784;SDS011;49927;48.146;11.420;2022-12-31T07:44:01;1.70;;;1.02;;
63784;SDS011;49927;48.146;11.420;2022-12-31T07:46:34;0.93;;;0.75;;
63784;SDS011;49927;48.146;11.420;2022-12-31T07:49:10;2.30;;;0.90;;
63784;SDS011;49927;48.146;11.420;2022-12-31T07:51:37;1.00;;;0.57;;
63784;SDS011;49927;48.146;11.420;2022-12-31T07:54:03;0.85;;;0.43;;
63784;SDS011;49927;48.146;11.420;2022-12-31T07:56:28;0.40;;;0.30;;
63784;SDS011;49927;48.146;11.420;2022-12-31T07:59:00;3.53;;;0.60;;
63784;SDS011;49927;48.146;11.420;2022-12-31T08:01:32;1.57;;;0.57;;
63784;SDS011;49927;48.146;11.420;2022-12-31T08:04:00;0.75;;;0.20;;
63784;SDS011;49927;48.146;11.420;2022-12-31T08:06:32;1.10;;;0.63;;
63784;SDS011;49927;48.146;11.420;2022-12-31T08:09:02;2.40;;;0.30;;
63784;SDS011;49927;48.146;11.420;2022-12-31T08:11:31;0.80;;;0.43;;
63784;SDS011;49927;48.146;11.420;2022-12-31T08:14:00;0.43;;;0.30;;
63784;SDS011;49927;48.146;11.420;2022-12-31T08:16:26;0.30;;;0.30;;
63784;SDS011;49927;48.146;11.420;2022-12-31T08:18:53;2.78;;;0.63;;
63784;SDS011;49927;48.146;11.420;2022-12-31T08:21:21;0.80;;;0.30;;
63784;SDS011;49927;48.146;11.420;2022-12-31T08:23:58;0.45;;;0.43;;
63784;SDS011;49927;48.146;11.420;2022-12-31T08:26:36;2.20;;;0.82;;
63784;SDS011;49927;48.146;11.420;2022-12-31T08:29:06;1.35;;;0.65;;
63784;SDS011;49927;48.146;11.420;2022-12-31T08:31:40;0.45;;;0.45;;
63784;SDS011;49927;48.146;11.420;2022-12-31T08:34:11;2.53;;;0.70;;
63784;SDS011;49927;48.146;11.420;2022-12-31T08:36:42;5.75;;;2.42;;
63784;SDS011;49927;48.146;11.420;2022-12-31T08:39:15;3.42;;;1.23;;
63784;SDS011;49927;48.146;11.420;2022-12-31T08:41:48;1.38;;;1.13;;
63784;SDS011;49927;48.146;11.420;2022-12-31T08:44:16;1.60;;;0.90;;
63784;SDS011;49927;48.146;11.420;2022-12-31T08:46:49;9.52;;;3.33;;
63784;SDS011;49927;48.146;11.420;2022-12-31T08:49:19;4.57;;;1.92;;
63784;SDS011;49927;48.146;11.420;2022-12-31T08:51:45;1.00;;;0.90;;
63784;SDS011;49927;48.146;11.420;2022-12-31T08:54:11;0.50;;;0.40;;
63784;SDS011;49927;48.146;11.420;2022-12-31T08:56:41;0.50;;;0.40;;
63784;SDS011;49927;48.146;11.420;2022-12-31T08:59:13;1.25;;;0.90;;
63784;SDS011;49927;48.146;11.420;2022-12-31T09:01:51;1.15;;;0.57;;
63784;SDS011;49927;48.146;11.420;2022-12-31T09:04:24;1.60;;;0.80;;
63784;SDS011;49927;48.146;11.420;2022-12-31T09:06:55;0.80;;;0.55;;
63784;SDS011;49927;48.146;11.420;2022-12-31T09:09:25;1.65;;;1.00;;
63784;SDS011;49927;48.146;11.420;2022-12-31T09:11:56;0.60;;;0.52;;
63784;SDS011;49927;48.146;11.420;2022-12-31T09:14:31;0.95;;;0.52;;
63784;SDS011;49927;48.146;11.420;2022-12-31T09:17:08;0.77;;;0.47;;
63784;SDS011;49927;48.146;11.420;2022-12-31T09:19:41;1.13;;;0.70;;
63784;SDS011;49927;48.146;11.420;2022-12-31T09:22:08;1.58;;;0.60;;
63784;SDS011;49927;48.146;11.420;2022-12-31T09:24:34;1.45;;;0.65;;
63784;SDS011;49927;48.146;11.420;2022-12-31T09:27:03;0.20;;;0.13;;
63784;SDS011;49927;48.146;11.420;2022-12-31T09:29:36;0.73;;;0.47;;
63784;SDS011;49927;48.146;11.420;2022-12-31T09:32:07;0.38;;;0.30;;
63784;SDS011;49927;48.146;11.420;2022-12-31T09:34:40;0.35;;;0.28;;
63784;SDS011;49927;48.146;11.420;2022-12-31T09:37:10;0.50;;;0.30;;
63784;SDS011;49927;48.146;11.420;2022-12-31T09:39:40;0.65;;;0.30;;
63784;SDS011;49927;48.146;11.420;2022-12-31T09:42:14;0.40;;;0.40;;
63784;SDS011;49927;48.146;11.420;2022-12-31T09:45:07;1.33;;;0.80;;
63784;SDS011;49927;48.146;11.420;2022-12-31T09:47:59;1.45;;;0.65;;
63784;SDS011;49927;48.146;11.420;2022-12-31T09:50:49;2.92;;;1.08;;
63784;SDS011;49927;48.146;11.420;2022-12-31T09:53:26;2.83;;;1.02;;
63784;SDS011;49927;48.146;11.420;2022-12-31T09:55:59;2.08;;;0.60;;
63784;SDS011;49927;48.146;11.420;2022-12-31T09:58:34;1.67;;;0.50;;
63784;SDS011;49927;48.146;11.420;2022-12-31T10:01:09;1.58;;;0.28;;
63784;SDS011;49927;48.146;11.420;2022-12-31T10:03:50;1.03;;;0.47;;
63784;SDS011;49927;48.146;11.420;2022-12-31T10:06:27;0.70;;;0.43;;
63784;SDS011;49927;48.146;11.420;2022-12-31T10:09:02;0.22;;;0.20;;
63784;SDS011;49927;48.146;11.420;2022-12-31T10:11:51;1.90;;;0.60;;
63784;SDS011;49927;48.146;11.420;2022-12-31T10:14:31;2.00;;;0.82;;
63784;SDS011;49927;48.146;11.420;2022-12-31T10:17:15;0.70;;;0.45;;
63784;SDS011;49927;48.146;11.420;2022-12-31T10:28:53;5.28;;;1.42;;
63784;SDS011;49927;48.146;11.420;2022-12-31T10:31:28;2.80;;;0.70;;
63784;SDS011;49927;48.146;11.420;2022-12-31T10:34:04;1.20;;;0.60;;
63784;SDS011;49927;48.146;11.420;2022-12-31T10:36:44;3.63;;;1.00;;
63784;SDS011;49927;48.146;11.420;2022-12-31T10:39:17;0.35;;;0.25;;
63784;SDS011;49927;48.146;11.420;2022-12-31T10:44:58;1.42;;;0.50;;
63784;SDS011;49927;48.146;11.420;2022-12-31T10:50:52;0.55;;;0.40;;
63784;SDS011;49927;48.146;11.420;2022-12-31T10:53:41;2.25;;;1.40;;
63784;SDS011;49927;48.146;11.420;2022-12-31T11:13:03;1.10;;;0.65;;
63784;SDS011;49927;48.146;11.420;2022-12-31T11:18:37;1.60;;;0.75;;
63784;SDS011;49927;48.146;11.420;2022-12-31T11:21:17;1.27;;;0.60;;
63784;SDS011;49927;48.146;11.420;2022-12-31T11:23:49;0.82;;;0.80;;
63784;SDS011;49927;48.146;11.420;2022-12-31T11:26:25;0.98;;;0.80;;
63784;SDS011;49927;48.146;11.420;2022-12-31T11:28:59;0.50;;;0.50;;
63784;SDS011;49927;48.146;11.420;2022-12-31T11:31:36;2.55;;;1.58;;
63784;SDS011;49927;48.146;11.420;2022-12-31T11:34:15;0.75;;;0.75;;
63784;SDS011;49927;48.146;11.420;2022-12-31T11:36:55;1.25;;;0.68;;
63784;SDS011;49927;48.146;11.420;2022-12-31T11:39:33;6.40;;;0.98;;
63784;SDS011;49927;48.146;11.420;2022-12-31T11:42:06;1.88;;;1.10;;
63784;SDS011;49927;48.146;11.420;2022-12-31T11:44:43;6.40;;;2.90;;
63784;SDS011;49927;48.146;11.420;2022-12-31T11:47:32;2.97;;;1.23;;
63784;SDS011;49927;48.146;11.420;2022-12-31T11:50:16;5.35;;;1.67;;
63784;SDS011;49927;48.146;11.420;2022-12-31T11:52:53;3.58;;;1.77;;
63784;SDS011;49927;48.146;11.420;2022-12-31T11:58:23;2.10;;;1.30;;
63784;SDS011;49927;48.146;11.420;2022-12-31T12:00:50;1.80;;;0.88;;
63784;SDS011;49927;48.146;11.420;2022-12-31T12:03:19;3.45;;;1.20;;
63784;SDS011;49927;48.146;11.420;2022-12-31T12:05:47;1.80;;;1.20;;
63784;SDS011;49927;48.146;11.420;2022-12-31T12:08:14;1.13;;;1.02;;
63784;SDS011;49927;48.146;11.420;2022-12-31T12:10:43;3.10;;;1.30;;
63784;SDS011;49927;48.146;11.420;2022-12-31T12:13:12;1.13;;;1.02;;
63784;SDS011;49927;48.146;11.420;2022-12-31T12:15:38;1.95;;;0.88;;
63784;SDS011;49927;48.146;11.420;2022-12-31T12:18:07;2.20;;;1.55;;
63784;SDS011;49927;48.146;11.420;2022-12-31T12:20:34;3.95;;;1.75;;
63784;SDS011;49927;48.146;11.420;2022-12-31T12:23:01;4.20;;;1.10;;
63784;SDS011;49927;48.146;11.420;2022-12-31T12:25:40;1.42;;;0.75;;
63784;SDS011;49927;48.146;11.420;2022-12-31T12:28:10;1.27;;;0.52;;
63784;SDS011;49927;48.146;11.420;2022-12-31T12:30:42;2.03;;;0.60;;
63784;SDS011;49927;48.146;11.420;2022-12-31T12:33:12;0.63;;;0.63;;
63784;SDS011;49927;48.146;11.420;2022-12-31T12:35:40;1.40;;;1.00;;
63784;SDS011;49927;48.146;11.420;2022-12-31T12:38:11;1.58;;;1.00;;
63784;SDS011;49927;48.146;11.420;2022-12-31T12:40:39;1.17;;;1.08;;
63784;SDS011;49927;48.146;11.420;2022-12-31T12:43:05;0.88;;;0.88;;
63784;SDS011;49927;48.146;11.420;2022-12-31T12:45:45;1.90;;;1.15;;
63784;SDS011;49927;48.146;11.420;2022-12-31T12:48:12;1.85;;;0.90;;
63784;SDS011;49927;48.146;11.420;2022-12-31T12:50:42;2.28;;;1.20;;
63784;SDS011;49927;48.146;11.420;2022-12-31T12:53:21;2.78;;;0.70;;
63784;SDS011;49927;48.146;11.420;2022-12-31T12:55:56;1.05;;;0.85;;
63784;SDS011;49927;48.146;11.420;2022-12-31T12:58:32;3.08;;;1.25;;
63784;SDS011;49927;48.146;11.420;2022-12-31T13:01:03;1.17;;;1.08;;
63784;SDS011;49927;48.146;11.420;2022-12-31T13:03:40;1.88;;;1.30;;
63784;SDS011;49927;48.146;11.420;2022-12-31T13:06:26;1.38;;;0.80;;
63784;SDS011;49927;48.146;11.420;2022-12-31T13:09:01;1.13;;;0.95;;
63784;SDS011;49927;48.146;11.420;2022-12-31T13:11:37;1.05;;;0.50;;
63784;SDS011;49927;48.146;11.420;2022-12-31T13:14:17;0.65;;;0.65;;
63784;SDS011;49927;48.146;11.420;2022-12-31T13:16:49;1.42;;;0.90;;
63784;SDS011;49927;48.146;11.420;2022-12-31T13:19:19;2.88;;;1.30;;
63784;SDS011;49927;48.146;11.420;2022-12-31T13:21:51;0.95;;;0.95;;
63784;SDS011;49927;48.146;11.420;2022-12-31T13:24:21;1.75;;;0.93;;
63784;SDS011;49927;48.146;11.420;2022-12-31T13:26:55;1.42;;;0.70;;
63784;SDS011;49927;48.146;11.420;2022-12-31T13:29:26;16.70;;;6.18;;
63784;SDS011;49927;48.146;11.420;2022-12-31T13:31:53;4.63;;;2.28;;
63784;SDS011;49927;48.146;11.420;2022-12-31T13:34:24;4.18;;;1.52;;
63784;SDS011;49927;48.146;11.420;2022-12-31T13:36:53;4.55;;;1.65;;
63784;SDS011;49927;48.146;11.420;2022-12-31T13:39:21;2.00;;;1.55;;
63784;SDS011;49927;48.146;11.420;2022-12-31T13:42:08;2.65;;;0.60;;
63784;SDS011;49927;48.146;11.420;2022-12-31T13:44:36;3.15;;;1.33;;
63784;SDS011;49927;48.146;11.420;2022-12-31T13:47:05;1.40;;;1.00;;
63784;SDS011;49927;48.146;11.420;2022-12-31T13:49:39;1.35;;;1.02;;
63784;SDS011;49927;48.146;11.420;2022-12-31T13:52:13;1.10;;;0.90;;
63784;SDS011;49927;48.146;11.420;2022-12-31T13:54:52;3.65;;;2.00;;
63784;SDS011;49927;48.146;11.420;2022-12-31T13:57:22;4.18;;;1.83;;
63784;SDS011;49927;48.146;11.420;2022-12-31T13:59:53;4.72;;;1.30;;
63784;SDS011;49927;48.146;11.420;2022-12-31T14:02:25;2.33;;;1.50;;
63784;SDS011;49927;48.146;11.420;2022-12-31T14:04:56;5.22;;;3.90;;
63784;SDS011;49927;48.146;11.420;2022-12-31T14:07:25;4.47;;;3.20;;
63784;SDS011;49927;48.146;11.420;2022-12-31T14:09:53;3.40;;;1.90;;
63784;SDS011;49927;48.146;11.420;2022-12-31T14:12:23;6.80;;;3.45;;
63784;SDS011;49927;48.146;11.420;2022-12-31T14:14:56;7.30;;;3.85;;
63784;SDS011;49927;48.146;11.420;2022-12-31T14:17:27;3.42;;;2.05;;
63784;SDS011;49927;48.146;11.420;2022-12-31T14:20:00;1.42;;;1.20;;
63784;SDS011;49927;48.146;11.420;2022-12-31T14:22:36;5.55;;;3.05;;
63784;SDS011;49927;48.146;11.420;2022-12-31T14:25:12;5.88;;;2.42;;
63784;SDS011;49927;48.146;11.420;2022-12-31T14:35:35;6.60;;;2.25;;
63784;SDS011;49927;48.146;11.420;2022-12-31T14:38:10;4.72;;;2.88;;
63784;SDS011;49927;48.146;11.420;2022-12-31T14:40:44;5.38;;;2.63;;
63784;SDS011;49927;48.146;11.420;2022-12-31T14:43:20;3.15;;;2.00;;
63784;SDS011;49927;48.146;11.420;2022-12-31T14:45:54;4.68;;;2.67;;
63784;SDS011;49927;48.146;11.420;2022-12-31T14:48:32;6.97;;;4.13;;
63784;SDS011;49927;48.146;11.420;2022-12-31T14:51:07;6.30;;;3.80;;
63784;SDS011;49927;48.146;11.420;2022-12-31T14:53:33;8.23;;;3.45;;
63784;SDS011;49927;48.146;11.420;2022-12-31T14:56:00;4.45;;;2.92;;
63784;SDS011;49927;48.146;11.420;2022-12-31T14:58:31;7.75;;;4.20;;
63784;SDS011;49927;48.146;11.420;2022-12-31T15:00:58;13.93;;;5.82;;
63784;SDS011;49927;48.146;11.420;2022-12-31T15:03:25;14.98;;;8.32;;
63784;SDS011;49927;48.146;11.420;2022-12-31T15:05:58;14.77;;;7.80;;
63784;SDS011;49927;48.146;11.420;2022-12-31T15:08:38;8.13;;;5.95;;
63784;SDS011;49927;48.146;11.420;2022-12-31T15:11:15;13.13;;;6.95;;
63784;SDS011;49927;48.146;11.420;2022-12-31T15:13:54;10.60;;;6.82;;
63784;SDS011;49927;48.146;11.420;2022-12-31T15:16:37;35.08;;;18.17;;
63784;SDS011;49927;48.146;11.420;2022-12-31T15:19:25;22.70;;;14.50;;
63784;SDS011;49927;48.146;11.420;2022-12-31T15:22:15;12.45;;;8.02;;
63784;SDS011;49927;48.146;11.420;2022-12-31T15:24:49;14.27;;;8.40;;
63784;SDS011;49927;48.146;11.420;2022-12-31T15:27:22;18.33;;;11.00;;
63784;SDS011;49927;48.146;11.420;2022-12-31T15:29:55;47.97;;;22.50;;
63784;SDS011;49927;48.146;11.420;2022-12-31T15:32:22;19.50;;;12.45;;
63784;SDS011;49927;48.146;11.420;2022-12-31T15:34:58;19.77;;;11.35;;
63784;SDS011;49927;48.146;11.420;2022-12-31T15:37:26;22.58;;;12.55;;
63784;SDS011;49927;48.146;11.420;2022-12-31T15:40:03;20.98;;;13.13;;
63784;SDS011;49927;48.146;11.420;2022-12-31T15:42:33;25.00;;;14.77;;